Time;durP1;ratioP1;P1;durP2;ratioP2;P2;SDS_P1;SDS_P2;PMS_P1;PMS_P2;Temp;Humidity;BMP_temperature;BMP_pressure;BME280_temperature;BME280_humidity;BME280_pressure;Samples;Min_cycle;Max_cycle;Signal;HPM_P1;HPM_P2
2023/12/04 00:00:03;;;;;;;2.70;2.57;;;;;;;;;;6003721;29;20298;-68
2023/12/04 00:03:14;;;;;;;2.27;2.27;;;;;;;;;;5998520;29;20297;-69
2023/12/04 00:06:18;;;;;;;3.10;2.90;;;;;;;;;;5997531;29;20293;-67
2023/12/04 00:09:24;;;;;;;2.30;2.20;;;;;;;;;;5997703;29;20309;-69
2023/12/04 00:12:29;;;;;;;2.60;2.50;;;;;;;;;;6003501;29;20598;-68
2023/12/04 00:15:33;;;;;;;2.40;2.30;;;;;;;;;;5995991;29;20309;-68
2023/12/04 00:18:37;;;;;;;2.50;2.50;;;;;;;;;;5996091;29;20609;-68
2023/12/04 00:21:41;;;;;;;2.10;2.10;;;;;;;;;;6016000;29;20297;-68
2023/12/04 00:24:46;;;;;;;2.30;2.30;;;;;;;;;;6024932;29;20585;-68
2023/12/04 00:27:50;;;;;;;2.30;2.20;;;;;;;;;;6021749;29;20314;-69
2023/12/04 00:30:54;;;;;;;2.40;2.30;;;;;;;;;;6001567;29;20309;-69
2023/12/04 00:34:49;;;;;;;2.23;2.07;;;;;;;;;;6003641;29;20325;-68
2023/12/04 00:39:07;;;;;;;2.40;2.30;;;;;;;;;;6003950;29;20301;-67
2023/12/04 00:43:51;;;;;;;2.80;2.70;;;;;;;;;;6001896;29;20297;-68
2023/12/04 00:48:35;;;;;;;2.20;2.20;;;;;;;;;;6014983;29;20324;-68
2023/12/04 00:53:18;;;;;;;1.77;1.77;;;;;;;;;;6024904;29;20414;-68
2023/12/04 00:58:01;;;;;;;2.50;2.30;;;;;;;;;;6024096;29;20305;-68
2023/12/04 01:02:43;;;;;;;2.20;2.20;;;;;;;;;;6024774;29;20305;-68
2023/12/04 01:07:25;;;;;;;1.90;1.90;;;;;;;;;;6024020;29;20291;-68
2023/12/04 01:12:09;;;;;;;2.53;2.43;;;;;;;;;;6025277;29;20301;-68
2023/12/04 01:16:52;;;;;;;2.20;2.20;;;;;;;;;;6023710;29;20300;-68
2023/12/04 07:07:59;;;;;;;2.23;2.23;;;;;;;;;;5990574;29;20466;-69
2023/12/04 07:11:04;;;;;;;2.00;1.90;;;;;;;;;;6010603;29;20304;-69
2023/12/04 07:14:08;;;;;;;2.13;2.13;;;;;;;;;;6019256;29;20301;-69
2023/12/04 07:17:12;;;;;;;2.20;2.20;;;;;;;;;;6028028;29;20305;-68
2023/12/04 07:20:16;;;;;;;2.60;2.50;;;;;;;;;;6020358;29;20297;-68
2023/12/04 07:23:21;;;;;;;2.40;2.37;;;;;;;;;;6020752;29;20435;-68
2023/12/04 07:26:29;;;;;;;2.83;2.73;;;;;;;;;;6021018;29;20478;-67
2023/12/04 07:29:33;;;;;;;2.40;2.37;;;;;;;;;;6020576;29;20586;-70
2023/12/04 07:32:37;;;;;;;2.50;2.40;;;;;;;;;;6021015;29;20305;-68
2023/12/04 07:35:41;;;;;;;2.80;2.70;;;;;;;;;;6019862;29;20300;-68
2023/12/04 07:38:46;;;;;;;2.90;2.80;;;;;;;;;;6020120;29;20305;-69
2023/12/04 07:41:50;;;;;;;2.70;2.50;;;;;;;;;;6020820;29;20306;-69
2023/12/04 07:44:54;;;;;;;2.60;2.50;;;;;;;;;;6020784;29;20305;-69
2023/12/04 07:47:58;;;;;;;2.90;2.60;;;;;;;;;;6019560;29;20586;-69
2023/12/04 07:51:02;;;;;;;2.90;2.73;;;;;;;;;;6021006;29;20349;-69
2023/12/04 07:54:07;;;;;;;2.40;2.30;;;;;;;;;;6020453;29;20313;-68
2023/12/04 07:57:11;;;;;;;2.63;2.47;;;;;;;;;;6020380;29;20758;-69
2023/12/04 08:00:17;;;;;;;2.63;2.53;;;;;;;;;;6020038;29;20304;-68
2023/12/04 08:03:21;;;;;;;1.90;1.90;;;;;;;;;;6019754;29;20334;-69
2023/12/04 08:06:25;;;;;;;2.47;2.37;;;;;;;;;;6014406;29;20314;-68
2023/12/04 08:09:30;;;;;;;2.70;2.60;;;;;;;;;;6020229;29;20302;-69
2023/12/04 08:12:34;;;;;;;2.80;2.60;;;;;;;;;;6012038;29;20317;-69
2023/12/04 08:15:38;;;;;;;2.53;2.43;;;;;;;;;;5998017;29;20303;-69
2023/12/04 08:18:43;;;;;;;2.50;2.30;;;;;;;;;;5997454;29;20254;-69
2023/12/04 08:21:47;;;;;;;2.30;2.30;;;;;;;;;;5990420;29;20295;-68
2023/12/04 08:24:53;;;;;;;2.60;2.50;;;;;;;;;;5997612;29;20299;-68
2023/12/04 08:27:57;;;;;;;4.67;2.40;;;;;;;;;;5997614;29;20302;-69
2023/12/04 08:31:01;;;;;;;2.60;2.50;;;;;;;;;;6002688;29;20314;-70
2023/12/04 08:34:05;;;;;;;2.30;2.20;;;;;;;;;;6002623;29;20302;-69
2023/12/04 08:37:09;;;;;;;2.17;2.07;;;;;;;;;;6020848;29;20310;-68
2023/12/04 08:40:15;;;;;;;2.30;2.20;;;;;;;;;;6034114;29;20389;-68
2023/12/04 08:43:19;;;;;;;2.37;2.27;;;;;;;;;;6022216;29;20308;-70
2023/12/04 08:46:22;;;;;;;2.40;2.30;;;;;;;;;;6028834;29;20519;-68
2023/12/04 08:49:26;;;;;;;2.20;2.13;;;;;;;;;;6023915;29;20314;-69
2023/12/04 08:52:45;;;;;;;2.27;2.17;;;;;;;;;;6028675;29;20308;-69
2023/12/04 08:55:51;;;;;;;2.37;2.37;;;;;;;;;;6024218;29;20309;-69
2023/12/04 08:58:55;;;;;;;2.70;2.50;;;;;;;;;;6021306;29;20605;-69
2023/12/04 09:01:59;;;;;;;2.33;2.23;;;;;;;;;;6029511;29;20334;-68
2023/12/04 09:05:03;;;;;;;3.33;3.23;;;;;;;;;;6023593;29;20469;-69
2023/12/04 09:08:07;;;;;;;2.57;2.40;;;;;;;;;;6023621;29;20383;-69
2023/12/04 09:11:15;;;;;;;2.50;2.40;;;;;;;;;;6010684;29;20303;-68
2023/12/04 09:14:27;;;;;;;2.63;2.53;;;;;;;;;;6000901;29;20308;-68
2023/12/04 09:17:32;;;;;;;2.20;2.10;;;;;;;;;;5998085;29;20294;-68
2023/12/04 09:20:43;;;;;;;2.50;2.30;;;;;;;;;;5999678;29;20305;-68
2023/12/04 09:23:49;;;;;;;2.30;2.30;;;;;;;;;;5991041;29;20386;-69
2023/12/04 09:26:55;;;;;;;2.20;2.10;;;;;;;;;;6000885;29;20311;-68
2023/12/04 09:29:59;;;;;;;2.30;2.20;;;;;;;;;;6000557;29;20307;-69
2023/12/04 09:33:03;;;;;;;2.23;2.13;;;;;;;;;;6000543;29;20372;-69
2023/12/04 09:36:08;;;;;;;2.47;2.30;;;;;;;;;;6016660;29;20591;-69
2023/12/04 09:39:12;;;;;;;2.37;2.20;;;;;;;;;;6021454;29;20596;-68
2023/12/04 09:42:19;;;;;;;2.00;2.00;;;;;;;;;;6029913;29;20300;-69
2023/12/04 09:45:24;;;;;;;2.10;2.10;;;;;;;;;;6022885;29;20301;-68
2023/12/04 09:48:29;;;;;;;2.00;2.00;;;;;;;;;;6022440;29;20302;-69
2023/12/04 09:51:33;;;;;;;1.97;1.97;;;;;;;;;;6021325;29;20301;-68
2023/12/04 09:54:38;;;;;;;2.10;2.10;;;;;;;;;;6022202;29;20297;-68
2023/12/04 09:57:45;;;;;;;2.40;2.30;;;;;;;;;;6019569;29;20297;-68
2023/12/04 10:00:49;;;;;;;2.43;2.40;;;;;;;;;;6022681;29;20291;-69
2023/12/04 10:03:53;;;;;;;2.33;2.23;;;;;;;;;;6013874;29;20303;-69
2023/12/04 10:06:57;;;;;;;2.43;2.33;;;;;;;;;;5999815;29;20339;-69
2023/12/04 10:10:01;;;;;;;2.40;2.30;;;;;;;;;;6003724;29;20306;-69
2023/12/04 10:13:06;;;;;;;2.30;2.20;;;;;;;;;;6022170;29;21065;-68
2023/12/04 10:16:10;;;;;;;2.27;2.17;;;;;;;;;;6021182;29;20471;-68
2023/12/04 10:19:19;;;;;;;2.33;2.33;;;;;;;;;;6021773;29;20540;-67
2023/12/04 10:22:23;;;;;;;2.20;2.10;;;;;;;;;;6019055;29;20330;-68
2023/12/04 10:25:29;;;;;;;2.67;2.60;;;;;;;;;;6027086;29;20306;-69
2023/12/04 10:28:34;;;;;;;4.33;2.50;;;;;;;;;;6021965;29;20293;-69
2023/12/04 10:31:38;;;;;;;2.10;2.10;;;;;;;;;;6022821;29;20306;-69
2023/12/04 10:34:43;;;;;;;2.10;2.00;;;;;;;;;;6021315;29;20309;-69
2023/12/04 10:37:47;;;;;;;2.50;2.40;;;;;;;;;;6021699;29;20291;-70
2023/12/04 10:40:51;;;;;;;2.20;2.20;;;;;;;;;;6022424;29;20603;-68
2023/12/04 10:43:57;;;;;;;6.40;2.23;;;;;;;;;;6016734;29;20612;-69
2023/12/04 10:47:12;;;;;;;2.10;2.10;;;;;;;;;;6022394;29;20349;-69
2023/12/04 10:50:16;;;;;;;2.33;2.23;;;;;;;;;;6021691;29;20488;-69
2023/12/04 10:53:20;;;;;;;2.33;2.17;;;;;;;;;;6026018;29;20302;-69
2023/12/04 10:56:29;;;;;;;1.90;1.90;;;;;;;;;;6022190;29;20315;-70
2023/12/04 10:59:38;;;;;;;2.23;2.13;;;;;;;;;;6018741;29;20307;-69
2023/12/04 11:02:46;;;;;;;1.87;1.87;;;;;;;;;;6020610;29;20293;-70
2023/12/04 11:05:56;;;;;;;2.17;2.17;;;;;;;;;;6021019;29;20312;-69
2023/12/04 11:09:00;;;;;;;1.93;1.93;;;;;;;;;;6020976;29;20300;-70
2023/12/04 11:12:10;;;;;;;2.13;2.13;;;;;;;;;;6012512;29;20482;-69
2023/12/04 11:15:17;;;;;;;2.30;2.30;;;;;;;;;;5997222;29;20512;-69
2023/12/04 11:18:24;;;;;;;2.03;1.97;;;;;;;;;;5998305;29;20297;-68
2023/12/04 11:21:29;;;;;;;2.03;2.00;;;;;;;;;;5997099;29;20486;-69
2023/12/04 11:24:33;;;;;;;1.93;1.93;;;;;;;;;;5996703;29;20321;-69
2023/12/04 11:27:37;;;;;;;2.00;2.00;;;;;;;;;;5998709;29;20300;-69
2023/12/04 11:30:43;;;;;;;1.90;1.90;;;;;;;;;;5998369;29;20312;-68
2023/12/04 11:33:47;;;;;;;3.20;2.23;;;;;;;;;;6001095;29;20303;-68
2023/12/04 11:36:51;;;;;;;2.30;2.30;;;;;;;;;;6018755;29;20302;-68
2023/12/04 11:39:57;;;;;;;1.63;1.60;;;;;;;;;;6026931;29;20300;-69
2023/12/04 11:43:03;;;;;;;2.30;2.30;;;;;;;;;;6016731;29;20303;-69
2023/12/04 11:46:12;;;;;;;2.37;2.13;;;;;;;;;;5998555;29;20308;-69
2023/12/04 11:49:28;;;;;;;2.20;2.20;;;;;;;;;;5998258;29;20309;-69
2023/12/04 11:52:34;;;;;;;1.97;1.90;;;;;;;;;;5997477;29;20299;-69
2023/12/04 11:55:41;;;;;;;2.00;2.00;;;;;;;;;;5987992;29;20611;-68
2023/12/04 11:58:45;;;;;;;2.30;2.10;;;;;;;;;;5996261;29;20299;-68
2023/12/04 12:01:55;;;;;;;2.83;2.40;;;;;;;;;;6020808;29;20312;-69
2023/12/04 12:04:59;;;;;;;2.03;2.03;;;;;;;;;;6010713;29;20468;-69
2023/12/04 12:08:04;;;;;;;2.10;2.10;;;;;;;;;;6020427;29;20297;-69
2023/12/04 12:11:08;;;;;;;2.13;2.13;;;;;;;;;;6008160;29;20311;-69
2023/12/04 12:14:13;;;;;;;2.27;2.00;;;;;;;;;;5997131;29;20301;-68
2023/12/04 12:17:18;;;;;;;1.93;1.90;;;;;;;;;;6004488;29;20331;-70
2023/12/04 12:20:22;;;;;;;2.10;2.10;;;;;;;;;;5991796;29;20344;-70
2023/12/04 12:23:27;;;;;;;2.03;1.93;;;;;;;;;;6001778;29;20478;-69
2023/12/04 12:26:31;;;;;;;1.80;1.80;;;;;;;;;;6002213;29;20436;-70
2023/12/04 12:29:35;;;;;;;2.37;2.13;;;;;;;;;;6001564;29;20292;-69
2023/12/04 12:32:41;;;;;;;2.20;2.20;;;;;;;;;;6001605;29;20361;-70
2023/12/04 12:35:45;;;;;;;2.07;1.97;;;;;;;;;;6019411;29;20299;-69
2023/12/04 12:39:03;;;;;;;2.40;2.20;;;;;;;;;;6021047;29;20300;-69
2023/12/04 12:42:08;;;;;;;2.20;2.20;;;;;;;;;;6031300;29;20295;-69
2023/12/04 12:45:12;;;;;;;1.90;1.90;;;;;;;;;;6023892;29;20309;-70
2023/12/04 12:48:18;;;;;;;2.37;2.27;;;;;;;;;;6023826;29;20318;-70
2023/12/04 12:51:22;;;;;;;2.43;2.23;;;;;;;;;;6024231;29;20297;-70
2023/12/04 12:54:26;;;;;;;3.27;2.27;;;;;;;;;;6022562;29;20297;-70
2023/12/04 12:57:30;;;;;;;2.00;1.90;;;;;;;;;;6024645;29;20292;-71
2023/12/04 13:00:36;;;;;;;2.30;2.17;;;;;;;;;;6024031;29;20296;-69
2023/12/04 13:03:41;;;;;;;2.50;2.40;;;;;;;;;;6023830;29;20624;-69
2023/12/04 13:06:45;;;;;;;2.10;2.00;;;;;;;;;;6024490;29;20302;-69
2023/12/04 13:09:49;;;;;;;2.30;2.20;;;;;;;;;;6020347;29;20521;-68
2023/12/04 13:12:56;;;;;;;2.13;2.03;;;;;;;;;;6000843;29;20315;-69
2023/12/04 13:16:00;;;;;;;2.03;2.03;;;;;;;;;;6001322;29;20609;-68
2023/12/04 13:19:05;;;;;;;6.83;2.30;;;;;;;;;;6000550;29;20304;-70
2023/12/04 13:22:10;;;;;;;2.00;1.90;;;;;;;;;;6000843;29;20318;-69
2023/12/04 13:25:14;;;;;;;2.20;2.10;;;;;;;;;;5999797;29;20304;-69
2023/12/04 13:28:18;;;;;;;2.13;2.13;;;;;;;;;;6000344;29;20301;-70
2023/12/04 13:31:34;;;;;;;2.23;2.17;;;;;;;;;;6001520;29;20502;-69
2023/12/04 13:34:40;;;;;;;2.07;1.97;;;;;;;;;;6010298;29;20312;-69
2023/12/04 13:37:43;;;;;;;2.43;2.23;;;;;;;;;;6028075;29;20631;-68
2023/12/04 13:40:59;;;;;;;3.70;2.03;;;;;;;;;;6023320;29;20470;-68
2023/12/04 13:44:02;;;;;;;4.77;2.00;;;;;;;;;;6022691;29;20304;-69
2023/12/04 13:47:06;;;;;;;4.03;2.03;;;;;;;;;;6023585;29;20628;-69
2023/12/04 13:50:12;;;;;;;2.17;2.13;;;;;;;;;;6022678;29;20308;-68
2023/12/04 13:53:16;;;;;;;3.27;2.20;;;;;;;;;;6022788;29;20296;-68
2023/12/04 13:56:41;;;;;;;2.50;2.40;;;;;;;;;;6012626;29;20307;-69
2023/12/04 13:59:45;;;;;;;13.53;4.60;;;;;;;;;;6021362;29;20563;-69
2023/12/04 14:02:53;;;;;;;2.60;2.50;;;;;;;;;;6021783;29;20304;-68
2023/12/04 14:05:58;;;;;;;2.07;2.07;;;;;;;;;;6022431;29;20303;-68
2023/12/04 14:09:04;;;;;;;3.10;2.50;;;;;;;;;;6020393;29;20294;-69
2023/12/04 14:12:10;;;;;;;2.17;2.17;;;;;;;;;;6012015;29;20316;-67
2023/12/04 14:15:14;;;;;;;2.80;2.63;;;;;;;;;;6021290;29;20610;-68
2023/12/04 14:18:18;;;;;;;4.77;2.33;;;;;;;;;;6022845;29;20300;-68
2023/12/04 14:21:23;;;;;;;2.17;2.17;;;;;;;;;;6001275;29;20301;-68
2023/12/04 14:24:29;;;;;;;2.20;2.10;;;;;;;;;;5999310;29;20315;-68
2023/12/04 14:27:34;;;;;;;2.30;2.20;;;;;;;;;;5991735;29;20359;-69
2023/12/04 14:30:38;;;;;;;2.50;2.27;;;;;;;;;;5989508;29;20301;-69
2023/12/04 14:33:43;;;;;;;5.00;2.67;;;;;;;;;;5998906;29;20300;-70
2023/12/04 14:36:49;;;;;;;2.93;2.63;;;;;;;;;;5989814;29;20308;-69
2023/12/04 14:39:54;;;;;;;2.77;2.67;;;;;;;;;;5998426;29;20312;-68
2023/12/04 14:42:58;;;;;;;2.67;2.47;;;;;;;;;;5999427;29;20310;-69
2023/12/04 14:46:02;;;;;;;1.97;1.87;;;;;;;;;;5999500;29;20315;-68
2023/12/04 14:49:06;;;;;;;2.30;2.20;;;;;;;;;;5999019;29;20463;-68
2023/12/04 14:52:12;;;;;;;2.20;2.10;;;;;;;;;;5999460;29;20321;-68
2023/12/04 15:12:21;;;;;;;2.77;2.47;;;;;;;;;;6018274;29;20295;-69
2023/12/04 15:15:39;;;;;;;2.40;2.30;;;;;;;;;;6020637;29;20302;-68
2023/12/04 15:19:00;;;;;;;2.33;2.23;;;;;;;;;;6020664;29;20298;-69
2023/12/04 15:22:06;;;;;;;2.43;2.33;;;;;;;;;;6020272;29;20493;-68
2023/12/04 15:25:11;;;;;;;2.40;2.30;;;;;;;;;;6010147;29;20496;-68
2023/12/04 15:28:15;;;;;;;2.13;2.13;;;;;;;;;;6019543;29;20303;-68
2023/12/04 15:31:20;;;;;;;2.33;2.23;;;;;;;;;;6021206;29;20487;-68
2023/12/04 15:34:22;;;;;;;2.10;2.10;;;;;;;;;;6020537;29;20319;-68
2023/12/04 15:37:26;;;;;;;2.00;1.90;;;;;;;;;;6020270;29;20306;-68
2023/12/04 15:40:32;;;;;;;2.33;2.10;;;;;;;;;;6019964;29;20295;-68
2023/12/04 15:43:36;;;;;;;1.87;1.87;;;;;;;;;;6020668;29;20388;-69
2023/12/04 15:46:41;;;;;;;1.80;1.80;;;;;;;;;;6020447;29;20554;-68
2023/12/04 15:49:44;;;;;;;1.73;1.73;;;;;;;;;;6019746;29;20339;-68
2023/12/04 15:52:49;;;;;;;1.93;1.87;;;;;;;;;;6023683;29;20487;-69
2023/12/04 15:55:54;;;;;;;1.77;1.77;;;;;;;;;;6024822;29;20302;-69
2023/12/04 15:58:57;;;;;;;1.90;1.90;;;;;;;;;;6024851;29;20487;-67
2023/12/04 16:02:01;;;;;;;1.73;1.73;;;;;;;;;;6024711;29;20302;-68
2023/12/04 16:05:07;;;;;;;1.60;1.60;;;;;;;;;;6024116;29;20322;-68
2023/12/04 16:08:11;;;;;;;1.70;1.70;;;;;;;;;;6024557;29;20306;-67
2023/12/04 16:11:19;;;;;;;1.93;1.93;;;;;;;;;;6011246;29;20305;-69
2023/12/04 16:14:22;;;;;;;1.90;1.90;;;;;;;;;;6021008;29;20301;-68
2023/12/04 16:17:26;;;;;;;1.50;1.50;;;;;;;;;;6025008;29;20302;-68
2023/12/04 16:20:30;;;;;;;2.00;2.00;;;;;;;;;;6023969;29;20610;-68
2023/12/04 16:23:34;;;;;;;1.80;1.80;;;;;;;;;;6024473;29;20302;-69
2023/12/04 16:26:40;;;;;;;2.07;2.00;;;;;;;;;;6025009;29;20318;-69
2023/12/04 16:29:45;;;;;;;1.87;1.87;;;;;;;;;;6024083;29;20463;-68
2023/12/04 16:32:48;;;;;;;2.10;2.10;;;;;;;;;;6029539;29;20312;-70
2023/12/04 16:35:52;;;;;;;2.00;2.00;;;;;;;;;;6025094;29;20310;-69
2023/12/04 16:38:56;;;;;;;2.27;2.17;;;;;;;;;;6025172;29;20306;-69
2023/12/04 16:42:02;;;;;;;2.47;2.37;;;;;;;;;;6029649;29;20309;-69
2023/12/04 16:45:07;;;;;;;2.33;2.20;;;;;;;;;;6023487;29;20311;-69
2023/12/04 16:48:11;;;;;;;2.20;2.20;;;;;;;;;;6022367;29;20324;-68
2023/12/04 16:51:15;;;;;;;2.40;2.30;;;;;;;;;;6024230;29;20297;-68
2023/12/04 16:54:19;;;;;;;2.20;2.10;;;;;;;;;;6023977;29;20318;-69
2023/12/04 16:57:25;;;;;;;1.80;1.80;;;;;;;;;;6023779;29;20298;-68
2023/12/04 17:00:29;;;;;;;2.20;2.00;;;;;;;;;;6022913;29;20301;-68
2023/12/04 17:03:33;;;;;;;2.07;2.07;;;;;;;;;;6022879;29;20306;-68
2023/12/04 17:06:37;;;;;;;1.77;1.70;;;;;;;;;;6023674;29;20301;-69
2023/12/04 17:09:41;;;;;;;2.00;1.83;;;;;;;;;;6020508;29;20307;-69
2023/12/04 17:12:47;;;;;;;1.97;1.93;;;;;;;;;;6007323;29;20305;-68
2023/12/04 17:15:51;;;;;;;1.77;1.77;;;;;;;;;;6023146;29;20300;-68
2023/12/04 17:18:55;;;;;;;1.97;1.90;;;;;;;;;;6037112;29;20568;-69
2023/12/04 17:21:59;;;;;;;2.30;2.20;;;;;;;;;;6023390;29;20370;-69
2023/12/04 17:25:03;;;;;;;1.93;1.93;;;;;;;;;;6013365;29;20304;-69
2023/12/04 17:28:09;;;;;;;2.00;2.00;;;;;;;;;;6020220;29;20293;-69
2023/12/04 17:31:13;;;;;;;1.90;1.90;;;;;;;;;;6023374;29;20381;-70
2023/12/04 17:34:17;;;;;;;2.17;2.17;;;;;;;;;;5998343;29;20310;-68
2023/12/04 17:37:21;;;;;;;2.20;2.20;;;;;;;;;;6023665;29;20306;-69
2023/12/04 17:40:24;;;;;;;2.07;2.07;;;;;;;;;;6022459;29;20290;-69
2023/12/04 17:43:32;;;;;;;2.57;2.47;;;;;;;;;;6022838;29;20301;-68
2023/12/04 17:46:36;;;;;;;2.80;2.60;;;;;;;;;;6022356;29;20307;-67
2023/12/04 17:49:40;;;;;;;2.00;2.00;;;;;;;;;;6012242;29;20301;-69
2023/12/04 17:52:44;;;;;;;2.30;2.30;;;;;;;;;;6001981;29;20319;-69
2023/12/04 17:55:47;;;;;;;2.80;2.67;;;;;;;;;;6000203;29;20295;-68
2023/12/04 17:58:53;;;;;;;3.30;2.30;;;;;;;;;;5999880;29;20297;-69
2023/12/04 18:01:56;;;;;;;2.10;2.10;;;;;;;;;;5999778;29;20310;-69
2023/12/04 18:05:00;;;;;;;2.50;2.40;;;;;;;;;;5998986;29;20311;-69
2023/12/04 18:08:05;;;;;;;2.93;2.73;;;;;;;;;;6021928;29;20309;-69
2023/12/04 18:11:09;;;;;;;2.97;2.83;;;;;;;;;;6009712;29;20487;-69
2023/12/04 18:14:14;;;;;;;3.03;2.83;;;;;;;;;;6017514;29;20298;-69
2023/12/04 18:17:19;;;;;;;3.30;3.10;;;;;;;;;;6022027;29;20309;-69
2023/12/04 18:20:23;;;;;;;3.10;2.97;;;;;;;;;;6021145;29;20303;-68
2023/12/04 18:23:27;;;;;;;3.43;3.10;;;;;;;;;;6021802;29;20297;-68
2023/12/04 18:26:32;;;;;;;3.60;3.30;;;;;;;;;;6035946;29;20477;-68
2023/12/04 18:29:38;;;;;;;3.60;3.40;;;;;;;;;;6021199;29;20301;-68
2023/12/04 18:32:43;;;;;;;3.03;2.73;;;;;;;;;;6020442;29;20296;-69
2023/12/04 18:35:47;;;;;;;2.73;2.63;;;;;;;;;;6021577;29;20292;-68
2023/12/04 18:38:52;;;;;;;3.70;2.70;;;;;;;;;;6021264;29;20299;-68
2023/12/04 18:41:57;;;;;;;2.87;2.77;;;;;;;;;;6020313;29;20301;-67
2023/12/04 18:45:03;;;;;;;2.67;2.57;;;;;;;;;;6021021;29;20298;-67
2023/12/04 18:48:09;;;;;;;3.47;2.70;;;;;;;;;;6020689;29;20308;-68
2023/12/04 18:51:14;;;;;;;2.30;2.20;;;;;;;;;;6021569;29;20298;-68
2023/12/04 18:54:19;;;;;;;2.80;2.60;;;;;;;;;;6021286;29;20301;-69
2023/12/04 18:57:23;;;;;;;2.77;2.57;;;;;;;;;;6019343;29;20305;-68
2023/12/04 19:00:28;;;;;;;2.67;2.57;;;;;;;;;;6027922;29;20600;-68
2023/12/04 19:03:32;;;;;;;2.93;2.83;;;;;;;;;;5990224;29;20297;-67
2023/12/04 19:06:36;;;;;;;2.60;2.50;;;;;;;;;;5996396;29;20322;-67
2023/12/04 19:09:40;;;;;;;2.90;2.70;;;;;;;;;;6005781;29;20291;-68
2023/12/04 19:12:45;;;;;;;3.07;2.97;;;;;;;;;;6034697;29;20325;-67
2023/12/04 19:15:50;;;;;;;2.60;2.40;;;;;;;;;;6020867;29;20292;-67
2023/12/04 19:18:54;;;;;;;2.83;2.73;;;;;;;;;;6020747;29;20329;-68
2023/12/04 19:21:58;;;;;;;2.73;2.63;;;;;;;;;;6021146;29;20301;-68
2023/12/04 19:25:02;;;;;;;2.80;2.70;;;;;;;;;;6020887;29;20310;-68
2023/12/04 19:28:06;;;;;;;3.30;3.10;;;;;;;;;;6020200;29;20302;-69
2023/12/04 19:31:11;;;;;;;2.93;2.83;;;;;;;;;;6020694;29;20294;-68
2023/12/04 19:34:17;;;;;;;2.90;2.70;;;;;;;;;;6020695;29;20301;-68
2023/12/04 19:37:21;;;;;;;2.77;2.67;;;;;;;;;;6020878;29;20313;-68
2023/12/04 19:40:25;;;;;;;2.77;2.50;;;;;;;;;;6020315;29;20307;-68
2023/12/04 19:43:29;;;;;;;3.13;2.93;;;;;;;;;;6020127;29;20295;-68
2023/12/04 19:46:34;;;;;;;3.03;2.93;;;;;;;;;;6018952;29;20250;-68
2023/12/04 19:49:42;;;;;;;2.80;2.70;;;;;;;;;;6020486;29;20296;-68
2023/12/04 19:52:47;;;;;;;2.40;2.30;;;;;;;;;;6019631;29;20298;-68
2023/12/04 19:55:50;;;;;;;2.90;2.70;;;;;;;;;;6020409;29;20305;-67
2023/12/04 19:58:54;;;;;;;3.20;2.67;;;;;;;;;;6020196;29;20298;-68
2023/12/04 20:02:00;;;;;;;2.80;2.70;;;;;;;;;;6019524;29;20500;-68
2023/12/04 20:05:04;;;;;;;2.70;2.60;;;;;;;;;;6019697;29;20298;-68
2023/12/04 20:08:10;;;;;;;2.70;2.47;;;;;;;;;;6020058;29;20306;-67
2023/12/04 20:11:14;;;;;;;2.73;2.50;;;;;;;;;;6006898;29;20297;-68
2023/12/04 20:14:17;;;;;;;2.70;2.60;;;;;;;;;;6015864;29;20354;-69
2023/12/04 20:17:24;;;;;;;2.87;2.77;;;;;;;;;;6020184;29;20309;-68
2023/12/04 20:20:29;;;;;;;2.67;2.47;;;;;;;;;;6018990;29;20304;-68
2023/12/04 20:23:33;;;;;;;2.83;2.70;;;;;;;;;;6019711;29;20321;-68
2023/12/04 20:26:37;;;;;;;2.80;2.70;;;;;;;;;;6020274;29;20308;-68
2023/12/04 20:29:41;;;;;;;3.13;3.03;;;;;;;;;;6035077;29;20321;-68
2023/12/04 20:32:47;;;;;;;3.30;3.00;;;;;;;;;;5995375;29;20305;-68
2023/12/04 20:35:51;;;;;;;3.37;3.27;;;;;;;;;;5997831;29;20302;-68
2023/12/04 20:38:55;;;;;;;3.77;3.40;;;;;;;;;;5998737;29;20482;-68
2023/12/04 20:41:59;;;;;;;3.90;3.57;;;;;;;;;;6013927;29;20313;-69
2023/12/04 20:45:04;;;;;;;6.43;3.53;;;;;;;;;;6023632;29;20312;-68
2023/12/04 20:48:11;;;;;;;3.07;2.93;;;;;;;;;;6024684;29;20298;-68
2023/12/04 20:51:15;;;;;;;4.10;3.83;;;;;;;;;;6038184;29;20297;-68
2023/12/04 20:54:19;;;;;;;4.83;3.70;;;;;;;;;;6024373;29;20494;-67
2023/12/04 20:57:23;;;;;;;3.37;3.27;;;;;;;;;;6028641;29;20589;-68
2023/12/04 21:00:27;;;;;;;4.00;3.70;;;;;;;;;;6018856;29;20298;-67
2023/12/04 21:03:32;;;;;;;4.13;3.53;;;;;;;;;;6001128;29;20306;-69
2023/12/04 21:06:36;;;;;;;4.20;3.83;;;;;;;;;;6001152;29;20309;-68
2023/12/04 21:09:42;;;;;;;4.10;3.80;;;;;;;;;;6002319;29;20301;-70
2023/12/04 21:12:46;;;;;;;4.33;4.03;;;;;;;;;;6024635;29;20353;-68
2023/12/04 21:15:50;;;;;;;3.63;3.43;;;;;;;;;;6021408;29;20307;-70
2023/12/04 21:18:55;;;;;;;3.40;3.17;;;;;;;;;;6031139;29;20326;-69
2023/12/04 21:21:59;;;;;;;6.70;4.00;;;;;;;;;;5990941;29;20594;-69
2023/12/04 21:25:04;;;;;;;3.80;3.50;;;;;;;;;;6001016;29;20302;-68
2023/12/04 21:28:09;;;;;;;3.43;3.30;;;;;;;;;;6001268;29;20541;-68
2023/12/04 21:31:13;;;;;;;3.10;3.00;;;;;;;;;;5998870;29;20309;-68
2023/12/04 21:34:18;;;;;;;3.57;3.27;;;;;;;;;;6000700;29;20301;-68
2023/12/04 21:37:24;;;;;;;3.40;3.10;;;;;;;;;;6004665;29;20306;-69
2023/12/04 21:40:28;;;;;;;3.13;2.93;;;;;;;;;;6009583;29;20298;-69
2023/12/04 21:43:32;;;;;;;3.37;3.17;;;;;;;;;;6000435;29;20298;-69
2023/12/04 21:46:36;;;;;;;3.70;3.40;;;;;;;;;;6018875;29;20328;-69
2023/12/04 21:49:43;;;;;;;3.80;3.50;;;;;;;;;;6023120;29;20305;-69
2023/12/04 21:52:47;;;;;;;3.97;3.70;;;;;;;;;;6023678;29;20298;-69
2023/12/04 21:55:50;;;;;;;3.90;3.40;;;;;;;;;;6022797;29;20297;-69
2023/12/04 21:58:54;;;;;;;3.80;3.47;;;;;;;;;;6023053;29;20305;-69
2023/12/04 22:01:58;;;;;;;4.63;3.87;;;;;;;;;;6026921;29;20297;-69
2023/12/04 22:05:04;;;;;;;3.93;3.63;;;;;;;;;;6023409;29;20301;-69
2023/12/04 22:08:08;;;;;;;3.80;3.60;;;;;;;;;;6000700;29;20306;-69
2023/12/04 22:11:12;;;;;;;4.07;3.80;;;;;;;;;;6012912;29;20313;-69
2023/12/04 22:14:17;;;;;;;3.47;3.27;;;;;;;;;;6021839;29;20480;-68
2023/12/04 22:17:22;;;;;;;3.83;3.50;;;;;;;;;;6022112;29;20299;-68
2023/12/04 22:20:27;;;;;;;3.27;3.10;;;;;;;;;;6019682;29;20304;-69
2023/12/04 22:23:31;;;;;;;3.57;3.37;;;;;;;;;;6021650;29;20305;-68
2023/12/04 22:26:35;;;;;;;3.17;3.07;;;;;;;;;;6021967;29;20318;-68
2023/12/04 22:29:39;;;;;;;3.43;3.33;;;;;;;;;;6020278;29;20353;-69
2023/12/04 22:32:43;;;;;;;4.00;3.63;;;;;;;;;;6021733;29;20317;-69
2023/12/04 22:35:48;;;;;;;3.90;3.60;;;;;;;;;;6021308;29;20322;-69
2023/12/04 22:38:52;;;;;;;4.90;4.00;;;;;;;;;;6021424;29;20305;-69
2023/12/04 22:41:56;;;;;;;4.23;3.67;;;;;;;;;;6021444;29;20578;-68
2023/12/04 22:45:00;;;;;;;3.30;3.20;;;;;;;;;;6021486;29;20298;-68
2023/12/04 22:48:04;;;;;;;4.00;3.70;;;;;;;;;;6021874;29;20538;-67
2023/12/04 22:51:10;;;;;;;3.70;3.50;;;;;;;;;;6021124;29;20479;-68
2023/12/04 22:54:14;;;;;;;4.33;3.97;;;;;;;;;;6021192;29;20307;-68
2023/12/04 22:57:18;;;;;;;4.13;3.73;;;;;;;;;;6021089;29;20313;-67
2023/12/04 23:00:25;;;;;;;3.77;3.57;;;;;;;;;;6010467;29;20293;-68
2023/12/04 23:03:29;;;;;;;3.53;3.40;;;;;;;;;;5998581;29;20310;-68
2023/12/04 23:06:34;;;;;;;4.63;4.27;;;;;;;;;;5998286;29;20302;-68
2023/12/04 23:09:38;;;;;;;4.03;3.73;;;;;;;;;;5999036;29;20301;-68
2023/12/04 23:12:42;;;;;;;3.47;3.27;;;;;;;;;;6020675;29;20549;-69
2023/12/04 23:15:46;;;;;;;4.17;3.90;;;;;;;;;;6020254;29;20293;-68
2023/12/04 23:18:50;;;;;;;3.90;3.70;;;;;;;;;;6021284;29;20309;-68
2023/12/04 23:21:55;;;;;;;4.00;3.80;;;;;;;;;;6020784;29;20308;-67
2023/12/04 23:25:00;;;;;;;3.77;3.57;;;;;;;;;;6020386;29;20302;-68
2023/12/04 23:28:04;;;;;;;3.83;3.60;;;;;;;;;;6020706;29;20297;-68
2023/12/04 23:31:08;;;;;;;3.97;3.63;;;;;;;;;;6020029;29;20300;-68
2023/12/04 23:34:12;;;;;;;3.70;3.40;;;;;;;;;;6020418;29;20302;-68
2023/12/04 23:37:18;;;;;;;2.77;2.70;;;;;;;;;;6020550;29;20295;-68
2023/12/04 23:40:22;;;;;;;3.30;3.10;;;;;;;;;;6020159;29;20638;-68
2023/12/04 23:43:25;;;;;;;2.80;2.70;;;;;;;;;;6020111;29;20302;-68
2023/12/04 23:46:29;;;;;;;3.20;3.10;;;;;;;;;;6020552;29;20289;-68
2023/12/04 23:49:33;;;;;;;3.37;3.17;;;;;;;;;;6020021;29;20321;-68
2023/12/04 23:52:39;;;;;;;3.77;3.47;;;;;;;;;;6020293;29;20296;-68
2023/12/04 23:55:43;;;;;;;3.73;3.10;;;;;;;;;;6019946;29;20297;-68
2023/12/04 23:58:47;;;;;;;3.20;3.00;;;;;;;;;;5994836;29;20298;-68
